sensor_id;sensor_type;location;lat;lon;timestamp;temperature;humidity
67759;SHT31;54562;47.620;18.786;2023-02-11T00:02:41;-2.47;73.57
67759;SHT31;54562;47.620;18.786;2023-02-11T00:05:57;-2.45;73.71
67759;SHT31;54562;47.620;18.786;2023-02-11T00:09:07;-2.45;73.87
67759;SHT31;54562;47.620;18.786;2023-02-11T00:12:16;-2.41;73.93
67759;SHT31;54562;47.620;18.786;2023-02-11T00:15:25;-2.39;73.78
67759;SHT31;54562;47.620;18.786;2023-02-11T00:18:33;-2.38;73.69
67759;SHT31;54562;47.620;18.786;2023-02-11T00:21:41;-2.37;73.60
67759;SHT31;54562;47.620;18.786;2023-02-11T00:24:49;-2.38;73.51
67759;SHT31;54562;47.620;18.786;2023-02-11T00:27:59;-2.40;73.50
67759;SHT31;54562;47.620;18.786;2023-02-11T00:31:07;-2.43;73.59
67759;SHT31;54562;47.620;18.786;2023-02-11T00:34:16;-2.46;73.61
67759;SHT31;54562;47.620;18.786;2023-02-11T00:37:24;-2.49;73.71
67759;SHT31;54562;47.620;18.786;2023-02-11T00:40:32;-2.53;73.92
67759;SHT31;54562;47.620;18.786;2023-02-11T00:43:41;-2.54;74.13
67759;SHT31;54562;47.620;18.786;2023-02-11T00:46:49;-2.56;74.13
67759;SHT31;54562;47.620;18.786;2023-02-11T00:49:57;-2.56;74.13
67759;SHT31;54562;47.620;18.786;2023-02-11T00:53:07;-2.58;74.07
67759;SHT31;54562;47.620;18.786;2023-02-11T00:56:16;-2.58;74.20
67759;SHT31;54562;47.620;18.786;2023-02-11T00:59:24;-2.58;74.30
67759;SHT31;54562;47.620;18.786;2023-02-11T01:02:32;-2.58;74.51
67759;SHT31;54562;47.620;18.786;2023-02-11T01:05:40;-2.59;74.55
67759;SHT31;54562;47.620;18.786;2023-02-11T01:08:48;-2.59;74.47
67759;SHT31;54562;47.620;18.786;2023-02-11T01:11:57;-2.58;74.50
67759;SHT31;54562;47.620;18.786;2023-02-11T01:15:06;-2.58;74.46
67759;SHT31;54562;47.620;18.786;2023-02-11T01:18:20;-2.57;74.42
67759;SHT31;54562;47.620;18.786;2023-02-11T01:21:29;-2.56;74.51
67759;SHT31;54562;47.620;18.786;2023-02-11T01:24:37;-2.55;74.40
67759;SHT31;54562;47.620;18.786;2023-02-11T01:27:45;-2.56;74.31
67759;SHT31;54562;47.620;18.786;2023-02-11T01:30:53;-2.58;74.26
67759;SHT31;54562;47.620;18.786;2023-02-11T01:34:03;-2.59;74.30
67759;SHT31;54562;47.620;18.786;2023-02-11T01:37:12;-2.60;74.38
67759;SHT31;54562;47.620;18.786;2023-02-11T01:40:20;-2.61;74.48
67759;SHT31;54562;47.620;18.786;2023-02-11T01:43:30;-2.63;74.38
67759;SHT31;54562;47.620;18.786;2023-02-11T01:46:40;-2.65;74.40
67759;SHT31;54562;47.620;18.786;2023-02-11T01:49:49;-2.66;74.49
67759;SHT31;54562;47.620;18.786;2023-02-11T01:53:05;-2.68;74.59
67759;SHT31;54562;47.620;18.786;2023-02-11T01:56:27;-2.69;74.63
67759;SHT31;54562;47.620;18.786;2023-02-11T01:59:58;-2.69;74.65
67759;SHT31;54562;47.620;18.786;2023-02-11T02:03:14;-2.70;74.82
67759;SHT31;54562;47.620;18.786;2023-02-11T02:06:27;-2.71;74.79
67759;SHT31;54562;47.620;18.786;2023-02-11T02:09:42;-2.71;74.72
67759;SHT31;54562;47.620;18.786;2023-02-11T02:12:56;-2.71;74.66
67759;SHT31;54562;47.620;18.786;2023-02-11T02:16:06;-2.71;74.53
67759;SHT31;54562;47.620;18.786;2023-02-11T02:19:37;-2.71;74.60
67759;SHT31;54562;47.620;18.786;2023-02-11T02:23:28;-2.69;74.47
67759;SHT31;54562;47.620;18.786;2023-02-11T02:27:14;-2.68;74.64
67759;SHT31;54562;47.620;18.786;2023-02-11T02:34:32;-2.64;74.60
67759;SHT31;54562;47.620;18.786;2023-02-11T02:37:54;-2.65;74.44
67759;SHT31;54562;47.620;18.786;2023-02-11T02:41:10;-2.62;74.63
67759;SHT31;54562;47.620;18.786;2023-02-11T02:44:22;-2.59;74.74
67759;SHT31;54562;47.620;18.786;2023-02-11T02:47:31;-2.56;74.63
67759;SHT31;54562;47.620;18.786;2023-02-11T02:50:39;-2.54;74.61
67759;SHT31;54562;47.620;18.786;2023-02-11T02:53:52;-2.52;74.61
67759;SHT31;54562;47.620;18.786;2023-02-11T02:57:14;-2.49;74.40
67759;SHT31;54562;47.620;18.786;2023-02-11T03:00:38;-2.47;74.11
67759;SHT31;54562;47.620;18.786;2023-02-11T03:04:04;-2.45;74.07
67759;SHT31;54562;47.620;18.786;2023-02-11T03:07:22;-2.43;74.06
67759;SHT31;54562;47.620;18.786;2023-02-11T03:10:36;-2.42;74.16
67759;SHT31;54562;47.620;18.786;2023-02-11T03:13:48;-2.42;74.43
67759;SHT31;54562;47.620;18.786;2023-02-11T03:16:58;-2.42;74.40
67759;SHT31;54562;47.620;18.786;2023-02-11T03:20:12;-2.41;74.27
67759;SHT31;54562;47.620;18.786;2023-02-11T03:23:27;-2.40;74.03
67759;SHT31;54562;47.620;18.786;2023-02-11T03:26:41;-2.39;73.88
67759;SHT31;54562;47.620;18.786;2023-02-11T03:29:56;-2.39;73.68
67759;SHT31;54562;47.620;18.786;2023-02-11T03:33:16;-2.40;73.46
67759;SHT31;54562;47.620;18.786;2023-02-11T03:36:31;-2.39;73.49
67759;SHT31;54562;47.620;18.786;2023-02-11T03:39:51;-2.39;73.57
67759;SHT31;54562;47.620;18.786;2023-02-11T03:43:02;-2.38;73.71
67759;SHT31;54562;47.620;18.786;2023-02-11T03:46:20;-2.36;73.73
67759;SHT31;54562;47.620;18.786;2023-02-11T03:49:34;-2.35;73.57
67759;SHT31;54562;47.620;18.786;2023-02-11T03:52:46;-2.34;73.47
67759;SHT31;54562;47.620;18.786;2023-02-11T03:55:56;-2.33;73.58
67759;SHT31;54562;47.620;18.786;2023-02-11T03:59:08;-2.32;73.39
67759;SHT31;54562;47.620;18.786;2023-02-11T04:02:16;-2.31;73.45
67759;SHT31;54562;47.620;18.786;2023-02-11T04:05:25;-2.30;73.38
67759;SHT31;54562;47.620;18.786;2023-02-11T04:08:33;-2.30;73.26
67759;SHT31;54562;47.620;18.786;2023-02-11T04:11:42;-2.30;73.09
67759;SHT31;54562;47.620;18.786;2023-02-11T04:14:53;-2.29;73.09
67759;SHT31;54562;47.620;18.786;2023-02-11T04:18:01;-2.30;72.79
67759;SHT31;54562;47.620;18.786;2023-02-11T04:21:10;-2.31;72.53
67759;SHT31;54562;47.620;18.786;2023-02-11T04:24:18;-2.31;72.73
67759;SHT31;54562;47.620;18.786;2023-02-11T04:27:26;-2.30;72.65
67759;SHT31;54562;47.620;18.786;2023-02-11T04:30:34;-2.29;72.64
67759;SHT31;54562;47.620;18.786;2023-02-11T04:33:42;-2.28;72.53
67759;SHT31;54562;47.620;18.786;2023-02-11T04:36:50;-2.30;72.34
67759;SHT31;54562;47.620;18.786;2023-02-11T04:39:58;-2.29;72.47
67759;SHT31;54562;47.620;18.786;2023-02-11T04:43:07;-2.29;72.42
67759;SHT31;54562;47.620;18.786;2023-02-11T04:46:15;-2.28;72.33
67759;SHT31;54562;47.620;18.786;2023-02-11T04:49:23;-2.30;72.22
67759;SHT31;54562;47.620;18.786;2023-02-11T04:52:32;-2.30;72.22
67759;SHT31;54562;47.620;18.786;2023-02-11T04:55:39;-2.30;72.29
67759;SHT31;54562;47.620;18.786;2023-02-11T04:58:47;-2.30;72.50
67759;SHT31;54562;47.620;18.786;2023-02-11T05:01:55;-2.29;72.80
67759;SHT31;54562;47.620;18.786;2023-02-11T05:05:04;-2.30;72.94
67759;SHT31;54562;47.620;18.786;2023-02-11T05:08:12;-2.31;72.80
67759;SHT31;54562;47.620;18.786;2023-02-11T05:11:21;-2.32;72.88
67759;SHT31;54562;47.620;18.786;2023-02-11T05:14:30;-2.34;73.06
67759;SHT31;54562;47.620;18.786;2023-02-11T05:17:36;-2.37;73.00
67759;SHT31;54562;47.620;18.786;2023-02-11T05:20:44;-2.39;72.83
67759;SHT31;54562;47.620;18.786;2023-02-11T05:23:52;-2.41;73.01
67759;SHT31;54562;47.620;18.786;2023-02-11T05:27:00;-2.41;73.52
67759;SHT31;54562;47.620;18.786;2023-02-11T05:30:09;-2.42;73.25
67759;SHT31;54562;47.620;18.786;2023-02-11T05:33:18;-2.42;73.21
67759;SHT31;54562;47.620;18.786;2023-02-11T05:36:26;-2.42;73.36
67759;SHT31;54562;47.620;18.786;2023-02-11T05:39:35;-2.42;73.64
67759;SHT31;54562;47.620;18.786;2023-02-11T05:42:43;-2.41;73.53
67759;SHT31;54562;47.620;18.786;2023-02-11T05:45:51;-2.41;73.50
67759;SHT31;54562;47.620;18.786;2023-02-11T05:49:00;-2.41;73.36
67759;SHT31;54562;47.620;18.786;2023-02-11T05:52:08;-2.41;73.66
67759;SHT31;54562;47.620;18.786;2023-02-11T05:55:16;-2.42;73.70
67759;SHT31;54562;47.620;18.786;2023-02-11T05:58:24;-2.42;73.38
67759;SHT31;54562;47.620;18.786;2023-02-11T06:01:33;-2.46;72.99
67759;SHT31;54562;47.620;18.786;2023-02-11T06:04:41;-2.50;73.17
67759;SHT31;54562;47.620;18.786;2023-02-11T06:07:49;-2.53;73.35
67759;SHT31;54562;47.620;18.786;2023-02-11T06:10:57;-2.54;73.66
67759;SHT31;54562;47.620;18.786;2023-02-11T06:14:05;-2.54;73.59
67759;SHT31;54562;47.620;18.786;2023-02-11T06:17:14;-2.53;73.60
67759;SHT31;54562;47.620;18.786;2023-02-11T06:20:22;-2.52;73.37
67759;SHT31;54562;47.620;18.786;2023-02-11T06:23:30;-2.50;73.26
67759;SHT31;54562;47.620;18.786;2023-02-11T06:26:38;-2.45;73.78
67759;SHT31;54562;47.620;18.786;2023-02-11T06:29:47;-2.38;74.05
67759;SHT31;54562;47.620;18.786;2023-02-11T06:32:55;-2.29;73.93
67759;SHT31;54562;47.620;18.786;2023-02-11T06:36:08;-2.19;73.73
67759;SHT31;54562;47.620;18.786;2023-02-11T06:39:21;-2.09;73.42
67759;SHT31;54562;47.620;18.786;2023-02-11T06:42:29;-1.99;72.75
67759;SHT31;54562;47.620;18.786;2023-02-11T06:45:40;-1.91;72.37
67759;SHT31;54562;47.620;18.786;2023-02-11T06:48:48;-1.88;72.04
67759;SHT31;54562;47.620;18.786;2023-02-11T06:51:57;-1.89;71.80
67759;SHT31;54562;47.620;18.786;2023-02-11T06:55:05;-1.89;71.71
67759;SHT31;54562;47.620;18.786;2023-02-11T06:58:14;-1.92;71.53
67759;SHT31;54562;47.620;18.786;2023-02-11T07:01:22;-1.94;71.65
67759;SHT31;54562;47.620;18.786;2023-02-11T07:04:32;-1.92;72.00
67759;SHT31;54562;47.620;18.786;2023-02-11T07:07:40;-1.90;71.95
67759;SHT31;54562;47.620;18.786;2023-02-11T07:10:48;-1.89;72.04
67759;SHT31;54562;47.620;18.786;2023-02-11T07:13:58;-1.89;72.07
67759;SHT31;54562;47.620;18.786;2023-02-11T07:17:10;-1.93;72.16
67759;SHT31;54562;47.620;18.786;2023-02-11T07:20:19;-1.90;72.35
67759;SHT31;54562;47.620;18.786;2023-02-11T07:23:27;-1.87;72.13
67759;SHT31;54562;47.620;18.786;2023-02-11T07:26:35;-1.84;72.21
67759;SHT31;54562;47.620;18.786;2023-02-11T07:29:44;-1.83;72.28
67759;SHT31;54562;47.620;18.786;2023-02-11T07:32:52;-1.82;72.24
67759;SHT31;54562;47.620;18.786;2023-02-11T07:36:02;-1.79;72.38
67759;SHT31;54562;47.620;18.786;2023-02-11T07:39:14;-1.76;72.35
67759;SHT31;54562;47.620;18.786;2023-02-11T07:42:24;-1.74;72.43
67759;SHT31;54562;47.620;18.786;2023-02-11T07:45:32;-1.69;72.66
67759;SHT31;54562;47.620;18.786;2023-02-11T07:48:43;-1.63;72.86
67759;SHT31;54562;47.620;18.786;2023-02-11T07:51:52;-1.58;73.02
67759;SHT31;54562;47.620;18.786;2023-02-11T07:55:00;-1.52;73.04
67759;SHT31;54562;47.620;18.786;2023-02-11T07:58:09;-1.48;73.18
67759;SHT31;54562;47.620;18.786;2023-02-11T08:01:18;-1.45;73.32
67759;SHT31;54562;47.620;18.786;2023-02-11T08:04:31;-1.43;73.44
67759;SHT31;54562;47.620;18.786;2023-02-11T08:07:39;-1.41;73.59
67759;SHT31;54562;47.620;18.786;2023-02-11T08:10:47;-1.40;73.57
67759;SHT31;54562;47.620;18.786;2023-02-11T08:13:55;-1.40;73.76
67759;SHT31;54562;47.620;18.786;2023-02-11T08:17:04;-1.39;73.97
67759;SHT31;54562;47.620;18.786;2023-02-11T08:20:12;-1.38;73.97
67759;SHT31;54562;47.620;18.786;2023-02-11T08:23:20;-1.35;74.19
67759;SHT31;54562;47.620;18.786;2023-02-11T08:26:29;-1.29;74.43
67759;SHT31;54562;47.620;18.786;2023-02-11T08:29:38;-1.22;74.43
67759;SHT31;54562;47.620;18.786;2023-02-11T08:32:46;-1.14;74.46
67759;SHT31;54562;47.620;18.786;2023-02-11T08:35:54;-1.07;74.38
67759;SHT31;54562;47.620;18.786;2023-02-11T08:39:04;-0.99;74.43
67759;SHT31;54562;47.620;18.786;2023-02-11T08:42:22;-0.88;74.40
67759;SHT31;54562;47.620;18.786;2023-02-11T08:45:30;-0.77;74.45
67759;SHT31;54562;47.620;18.786;2023-02-11T08:48:39;-0.63;74.40
67759;SHT31;54562;47.620;18.786;2023-02-11T08:51:48;-0.47;74.14
67759;SHT31;54562;47.620;18.786;2023-02-11T08:54:57;-0.32;74.07
67759;SHT31;54562;47.620;18.786;2023-02-11T08:58:05;-0.13;74.07
67759;SHT31;54562;47.620;18.786;2023-02-11T09:01:14;0.14;74.55
67759;SHT31;54562;47.620;18.786;2023-02-11T09:04:25;0.46;74.15
67759;SHT31;54562;47.620;18.786;2023-02-11T09:07:33;0.69;73.52
67759;SHT31;54562;47.620;18.786;2023-02-11T09:10:42;0.89;73.13
67759;SHT31;54562;47.620;18.786;2023-02-11T09:13:51;1.10;72.84
67759;SHT31;54562;47.620;18.786;2023-02-11T09:17:00;1.27;72.65
67759;SHT31;54562;47.620;18.786;2023-02-11T09:20:09;1.47;72.55
67759;SHT31;54562;47.620;18.786;2023-02-11T09:23:25;1.61;72.30
67759;SHT31;54562;47.620;18.786;2023-02-11T09:26:33;1.70;72.11
67759;SHT31;54562;47.620;18.786;2023-02-11T09:29:46;1.83;71.77
67759;SHT31;54562;47.620;18.786;2023-02-11T09:32:54;1.95;71.03
67759;SHT31;54562;47.620;18.786;2023-02-11T09:36:03;2.09;70.91
67759;SHT31;54562;47.620;18.786;2023-02-11T09:39:17;2.21;70.68
67759;SHT31;54562;47.620;18.786;2023-02-11T09:42:33;2.32;70.38
67759;SHT31;54562;47.620;18.786;2023-02-11T09:45:49;2.42;69.93
67759;SHT31;54562;47.620;18.786;2023-02-11T09:49:00;2.51;70.06
67759;SHT31;54562;47.620;18.786;2023-02-11T09:52:14;2.63;69.97
67759;SHT31;54562;47.620;18.786;2023-02-11T09:55:40;2.72;69.69
67759;SHT31;54562;47.620;18.786;2023-02-11T09:58:51;2.79;69.40
67759;SHT31;54562;47.620;18.786;2023-02-11T10:02:01;2.86;69.25
67759;SHT31;54562;47.620;18.786;2023-02-11T10:05:24;2.93;69.12
67759;SHT31;54562;47.620;18.786;2023-02-11T10:08:50;3.03;68.84
67759;SHT31;54562;47.620;18.786;2023-02-11T10:12:16;3.14;68.81
67759;SHT31;54562;47.620;18.786;2023-02-11T10:15:38;3.28;68.70
67759;SHT31;54562;47.620;18.786;2023-02-11T10:19:00;3.43;68.75
67759;SHT31;54562;47.620;18.786;2023-02-11T10:22:27;3.56;68.22
67759;SHT31;54562;47.620;18.786;2023-02-11T10:25:43;3.69;67.88
67759;SHT31;54562;47.620;18.786;2023-02-11T10:28:58;3.89;67.75
67759;SHT31;54562;47.620;18.786;2023-02-11T10:32:19;4.12;67.28
67759;SHT31;54562;47.620;18.786;2023-02-11T10:35:38;4.38;66.94
67759;SHT31;54562;47.620;18.786;2023-02-11T10:38:48;4.68;66.66
67759;SHT31;54562;47.620;18.786;2023-02-11T10:41:58;5.04;65.93
67759;SHT31;54562;47.620;18.786;2023-02-11T10:45:16;5.39;65.22
67759;SHT31;54562;47.620;18.786;2023-02-11T10:48:40;5.57;64.52
67759;SHT31;54562;47.620;18.786;2023-02-11T10:51:51;5.61;64.01
67759;SHT31;54562;47.620;18.786;2023-02-11T10:55:24;5.61;63.96
67759;SHT31;54562;47.620;18.786;2023-02-11T10:58:35;5.62;63.57
67759;SHT31;54562;47.620;18.786;2023-02-11T11:01:50;5.66;63.54
67759;SHT31;54562;47.620;18.786;2023-02-11T11:05:05;5.69;63.00
67759;SHT31;54562;47.620;18.786;2023-02-11T11:08:23;5.70;62.68
67759;SHT31;54562;47.620;18.786;2023-02-11T11:11:51;5.74;62.55
67759;SHT31;54562;47.620;18.786;2023-02-11T11:15:00;5.76;62.38
67759;SHT31;54562;47.620;18.786;2023-02-11T11:18:24;5.82;62.03
67759;SHT31;54562;47.620;18.786;2023-02-11T11:21:34;5.89;61.74
67759;SHT31;54562;47.620;18.786;2023-02-11T11:24:46;5.95;61.47
67759;SHT31;54562;47.620;18.786;2023-02-11T11:27:57;6.02;60.96
67759;SHT31;54562;47.620;18.786;2023-02-11T11:31:12;6.11;60.39
67759;SHT31;54562;47.620;18.786;2023-02-11T11:34:27;6.33;59.90
67759;SHT31;54562;47.620;18.786;2023-02-11T11:37:39;6.64;59.37
67759;SHT31;54562;47.620;18.786;2023-02-11T11:40:49;6.79;59.22
67759;SHT31;54562;47.620;18.786;2023-02-11T11:44:24;6.81;58.39
67759;SHT31;54562;47.620;18.786;2023-02-11T11:47:36;6.80;58.28
67759;SHT31;54562;47.620;18.786;2023-02-11T11:50:52;6.81;58.03
67759;SHT31;54562;47.620;18.786;2023-02-11T11:54:05;6.76;57.56
67759;SHT31;54562;47.620;18.786;2023-02-11T11:57:21;6.68;57.07
67759;SHT31;54562;47.620;18.786;2023-02-11T12:00:34;6.62;56.89
67759;SHT31;54562;47.620;18.786;2023-02-11T12:04:11;6.64;57.08
67759;SHT31;54562;47.620;18.786;2023-02-11T12:07:46;6.67;56.83
67759;SHT31;54562;47.620;18.786;2023-02-11T12:11:09;6.67;56.47
67759;SHT31;54562;47.620;18.786;2023-02-11T12:14:27;6.66;55.76
67759;SHT31;54562;47.620;18.786;2023-02-11T12:17:55;6.65;54.86
67759;SHT31;54562;47.620;18.786;2023-02-11T12:21:31;6.65;54.44
67759;SHT31;54562;47.620;18.786;2023-02-11T12:24:55;6.64;53.84
67759;SHT31;54562;47.620;18.786;2023-02-11T12:28:27;6.62;53.39
67759;SHT31;54562;47.620;18.786;2023-02-11T12:31:49;6.60;53.41
67759;SHT31;54562;47.620;18.786;2023-02-11T12:35:26;6.68;53.69
67759;SHT31;54562;47.620;18.786;2023-02-11T12:39:08;6.86;53.05
67759;SHT31;54562;47.620;18.786;2023-02-11T12:42:43;6.85;52.50
67759;SHT31;54562;47.620;18.786;2023-02-11T12:49:55;7.28;52.09
67759;SHT31;54562;47.620;18.786;2023-02-11T12:53:26;7.46;51.68
67759;SHT31;54562;47.620;18.786;2023-02-11T12:56:53;7.46;51.20
67759;SHT31;54562;47.620;18.786;2023-02-11T13:00:14;7.47;51.28
67759;SHT31;54562;47.620;18.786;2023-02-11T13:03:27;7.46;51.31
67759;SHT31;54562;47.620;18.786;2023-02-11T13:06:43;7.45;51.39
67759;SHT31;54562;47.620;18.786;2023-02-11T13:10:00;7.41;50.88
67759;SHT31;54562;47.620;18.786;2023-02-11T13:13:20;7.31;50.88
67759;SHT31;54562;47.620;18.786;2023-02-11T13:16:34;7.24;51.30
67759;SHT31;54562;47.620;18.786;2023-02-11T13:19:47;7.21;51.13
67759;SHT31;54562;47.620;18.786;2023-02-11T13:23:05;7.16;51.11
67759;SHT31;54562;47.620;18.786;2023-02-11T13:26:26;7.11;51.03
67759;SHT31;54562;47.620;18.786;2023-02-11T13:30:11;7.29;50.83
67759;SHT31;54562;47.620;18.786;2023-02-11T13:33:37;7.76;50.59
67759;SHT31;54562;47.620;18.786;2023-02-11T13:36:50;7.89;50.29
67759;SHT31;54562;47.620;18.786;2023-02-11T13:40:02;7.88;50.46
67759;SHT31;54562;47.620;18.786;2023-02-11T13:43:27;7.83;50.25
67759;SHT31;54562;47.620;18.786;2023-02-11T13:46:48;7.75;50.30
67759;SHT31;54562;47.620;18.786;2023-02-11T13:50:02;7.84;50.08
67759;SHT31;54562;47.620;18.786;2023-02-11T13:53:25;8.37;49.96
67759;SHT31;54562;47.620;18.786;2023-02-11T13:57:13;8.33;49.59
67759;SHT31;54562;47.620;18.786;2023-02-11T14:00:44;8.08;49.71
67759;SHT31;54562;47.620;18.786;2023-02-11T14:07:55;7.83;49.88
67759;SHT31;54562;47.620;18.786;2023-02-11T14:11:44;7.94;50.13
67759;SHT31;54562;47.620;18.786;2023-02-11T14:18:59;7.98;49.97
67759;SHT31;54562;47.620;18.786;2023-02-11T14:22:12;7.78;50.13
67759;SHT31;54562;47.620;18.786;2023-02-11T14:25:25;7.60;50.57
67759;SHT31;54562;47.620;18.786;2023-02-11T14:28:34;7.46;51.09
67759;SHT31;54562;47.620;18.786;2023-02-11T14:31:48;7.36;51.18
67759;SHT31;54562;47.620;18.786;2023-02-11T14:35:10;7.23;51.31
67759;SHT31;54562;47.620;18.786;2023-02-11T14:38:25;7.12;51.30
67759;SHT31;54562;47.620;18.786;2023-02-11T14:41:48;6.99;51.44
67759;SHT31;54562;47.620;18.786;2023-02-11T14:44:58;6.89;51.67
67759;SHT31;54562;47.620;18.786;2023-02-11T14:48:15;6.79;51.80
67759;SHT31;54562;47.620;18.786;2023-02-11T14:51:26;6.71;51.93
67759;SHT31;54562;47.620;18.786;2023-02-11T14:54:39;6.61;52.09
67759;SHT31;54562;47.620;18.786;2023-02-11T14:58:04;6.52;52.33
67759;SHT31;54562;47.620;18.786;2023-02-11T15:01:28;6.44;52.73
67759;SHT31;54562;47.620;18.786;2023-02-11T15:04:38;6.34;53.06
67759;SHT31;54562;47.620;18.786;2023-02-11T15:07:47;6.28;53.27
67759;SHT31;54562;47.620;18.786;2023-02-11T15:10:59;6.24;53.25
67759;SHT31;54562;47.620;18.786;2023-02-11T15:14:25;6.19;53.33
67759;SHT31;54562;47.620;18.786;2023-02-11T15:17:36;6.12;53.59
67759;SHT31;54562;47.620;18.786;2023-02-11T15:20:45;6.06;53.88
67759;SHT31;54562;47.620;18.786;2023-02-11T15:23:56;6.00;54.17
67759;SHT31;54562;47.620;18.786;2023-02-11T15:27:11;5.93;54.67
67759;SHT31;54562;47.620;18.786;2023-02-11T15:30:24;5.87;54.97
67759;SHT31;54562;47.620;18.786;2023-02-11T15:33:37;5.78;54.92
67759;SHT31;54562;47.620;18.786;2023-02-11T15:36:45;5.72;55.06
67759;SHT31;54562;47.620;18.786;2023-02-11T15:39:53;5.66;55.26
67759;SHT31;54562;47.620;18.786;2023-02-11T15:43:14;5.60;55.37
67759;SHT31;54562;47.620;18.786;2023-02-11T15:46:23;5.53;55.64
67759;SHT31;54562;47.620;18.786;2023-02-11T15:49:44;5.47;55.91
67759;SHT31;54562;47.620;18.786;2023-02-11T15:52:55;5.40;56.15
67759;SHT31;54562;47.620;18.786;2023-02-11T15:56:16;5.31;56.13
67759;SHT31;54562;47.620;18.786;2023-02-11T15:59:29;5.24;56.03
67759;SHT31;54562;47.620;18.786;2023-02-11T16:02:43;5.19;56.17
67759;SHT31;54562;47.620;18.786;2023-02-11T16:05:53;5.11;56.15
67759;SHT31;54562;47.620;18.786;2023-02-11T16:09:25;5.04;56.15
67759;SHT31;54562;47.620;18.786;2023-02-11T16:12:39;4.98;56.16
67759;SHT31;54562;47.620;18.786;2023-02-11T16:15:56;4.93;56.13
67759;SHT31;54562;47.620;18.786;2023-02-11T16:19:12;4.88;56.17
67759;SHT31;54562;47.620;18.786;2023-02-11T16:22:28;4.81;56.23
67759;SHT31;54562;47.620;18.786;2023-02-11T16:25:40;4.74;56.42
67759;SHT31;54562;47.620;18.786;2023-02-11T16:28:48;4.68;56.65
67759;SHT31;54562;47.620;18.786;2023-02-11T16:32:05;4.65;56.92
67759;SHT31;54562;47.620;18.786;2023-02-11T16:35:19;4.64;57.16
67759;SHT31;54562;47.620;18.786;2023-02-11T16:38:28;4.62;57.40
67759;SHT31;54562;47.620;18.786;2023-02-11T16:41:37;4.58;57.49
67759;SHT31;54562;47.620;18.786;2023-02-11T16:44:45;4.56;57.60
67759;SHT31;54562;47.620;18.786;2023-02-11T16:47:54;4.53;57.79
67759;SHT31;54562;47.620;18.786;2023-02-11T16:51:04;4.48;58.00
67759;SHT31;54562;47.620;18.786;2023-02-11T16:54:16;4.43;58.23
67759;SHT31;54562;47.620;18.786;2023-02-11T16:57:24;4.38;58.25
67759;SHT31;54562;47.620;18.786;2023-02-11T17:00:33;4.36;58.37
67759;SHT31;54562;47.620;18.786;2023-02-11T17:03:41;4.34;58.53
67759;SHT31;54562;47.620;18.786;2023-02-11T17:06:52;4.32;58.60
67759;SHT31;54562;47.620;18.786;2023-02-11T17:10:00;4.31;58.61
67759;SHT31;54562;47.620;18.786;2023-02-11T17:13:09;4.32;58.69
67759;SHT31;54562;47.620;18.786;2023-02-11T17:16:18;4.29;58.93
67759;SHT31;54562;47.620;18.786;2023-02-11T17:19:30;4.29;59.07
67759;SHT31;54562;47.620;18.786;2023-02-11T17:22:38;4.28;59.27
67759;SHT31;54562;47.620;18.786;2023-02-11T17:25:46;4.27;59.49
67759;SHT31;54562;47.620;18.786;2023-02-11T17:29:02;4.28;59.67
67759;SHT31;54562;47.620;18.786;2023-02-11T17:32:13;4.28;59.70
67759;SHT31;54562;47.620;18.786;2023-02-11T17:35:21;4.27;59.90
67759;SHT31;54562;47.620;18.786;2023-02-11T17:38:29;4.26;59.96
67759;SHT31;54562;47.620;18.786;2023-02-11T17:41:38;4.26;60.30
67759;SHT31;54562;47.620;18.786;2023-02-11T17:44:46;4.23;60.47
67759;SHT31;54562;47.620;18.786;2023-02-11T17:47:54;4.21;60.61
67759;SHT31;54562;47.620;18.786;2023-02-11T17:51:02;4.18;60.91
67759;SHT31;54562;47.620;18.786;2023-02-11T17:54:24;4.14;61.08
67759;SHT31;54562;47.620;18.786;2023-02-11T17:57:32;4.12;61.23
67759;SHT31;54562;47.620;18.786;2023-02-11T18:00:40;4.10;60.94
67759;SHT31;54562;47.620;18.786;2023-02-11T18:03:49;4.10;60.90
67759;SHT31;54562;47.620;18.786;2023-02-11T18:06:57;4.09;61.07
67759;SHT31;54562;47.620;18.786;2023-02-11T18:10:06;4.06;61.10
67759;SHT31;54562;47.620;18.786;2023-02-11T18:13:16;4.04;61.17
67759;SHT31;54562;47.620;18.786;2023-02-11T18:16:24;4.01;61.37
67759;SHT31;54562;47.620;18.786;2023-02-11T18:19:33;3.99;61.29
67759;SHT31;54562;47.620;18.786;2023-02-11T18:22:41;3.97;61.21
67759;SHT31;54562;47.620;18.786;2023-02-11T18:25:49;3.96;61.39
67759;SHT31;54562;47.620;18.786;2023-02-11T18:28:57;3.95;61.22
67759;SHT31;54562;47.620;18.786;2023-02-11T18:32:06;3.97;61.31
67759;SHT31;54562;47.620;18.786;2023-02-11T18:35:15;4.01;61.37
67759;SHT31;54562;47.620;18.786;2023-02-11T18:38:23;4.04;61.24
67759;SHT31;54562;47.620;18.786;2023-02-11T18:41:31;4.07;61.33
67759;SHT31;54562;47.620;18.786;2023-02-11T18:44:42;4.09;61.39
67759;SHT31;54562;47.620;18.786;2023-02-11T18:47:50;4.10;61.38
67759;SHT31;54562;47.620;18.786;2023-02-11T18:50:58;4.12;61.08
67759;SHT31;54562;47.620;18.786;2023-02-11T18:54:11;4.15;61.13
67759;SHT31;54562;47.620;18.786;2023-02-11T18:57:19;4.17;61.28
67759;SHT31;54562;47.620;18.786;2023-02-11T19:00:29;4.19;61.33
67759;SHT31;54562;47.620;18.786;2023-02-11T19:03:37;4.21;61.40
67759;SHT31;54562;47.620;18.786;2023-02-11T19:06:47;4.23;61.56
67759;SHT31;54562;47.620;18.786;2023-02-11T19:09:55;4.24;61.46
67759;SHT31;54562;47.620;18.786;2023-02-11T19:13:03;4.26;61.50
67759;SHT31;54562;47.620;18.786;2023-02-11T19:16:12;4.25;61.80
67759;SHT31;54562;47.620;18.786;2023-02-11T19:19:23;4.23;61.87
67759;SHT31;54562;47.620;18.786;2023-02-11T19:22:33;4.25;61.97
67759;SHT31;54562;47.620;18.786;2023-02-11T19:25:44;4.30;62.06
67759;SHT31;54562;47.620;18.786;2023-02-11T19:28:56;4.34;62.30
67759;SHT31;54562;47.620;18.786;2023-02-11T19:32:05;4.37;62.58
67759;SHT31;54562;47.620;18.786;2023-02-11T19:35:13;4.40;62.78
67759;SHT31;54562;47.620;18.786;2023-02-11T19:38:21;4.44;62.95
67759;SHT31;54562;47.620;18.786;2023-02-11T19:41:31;4.47;63.17
67759;SHT31;54562;47.620;18.786;2023-02-11T19:44:39;4.49;63.40
67759;SHT31;54562;47.620;18.786;2023-02-11T19:47:49;4.50;63.73
67759;SHT31;54562;47.620;18.786;2023-02-11T19:51:07;4.51;63.97
67759;SHT31;54562;47.620;18.786;2023-02-11T19:54:16;4.51;64.18
67759;SHT31;54562;47.620;18.786;2023-02-11T19:57:25;4.50;64.42
67759;SHT31;54562;47.620;18.786;2023-02-11T20:00:33;4.51;64.56
67759;SHT31;54562;47.620;18.786;2023-02-11T20:03:41;4.51;64.75
67759;SHT31;54562;47.620;18.786;2023-02-11T20:06:52;4.51;64.80
67759;SHT31;54562;47.620;18.786;2023-02-11T20:10:00;4.49;65.00
67759;SHT31;54562;47.620;18.786;2023-02-11T20:13:09;4.47;65.13
67759;SHT31;54562;47.620;18.786;2023-02-11T20:16:18;4.46;65.17
67759;SHT31;54562;47.620;18.786;2023-02-11T20:19:49;4.44;65.41
67759;SHT31;54562;47.620;18.786;2023-02-11T20:22:57;4.43;65.72
67759;SHT31;54562;47.620;18.786;2023-02-11T20:26:06;4.44;66.05
67759;SHT31;54562;47.620;18.786;2023-02-11T20:29:17;4.44;66.28